TimeMST,TemperatureF,Dew PointF,Humidity,Sea Level PressureIn,VisibilityMPH,Wind Direction,Wind SpeedMPH,Gust SpeedMPH,PrecipitationIn,Events,Conditions,WindDirDegrees,DateUTC
12:15 AM,28.4,28.4,100,30.26,10.0,Calm,Calm,-,N/A,,Clear,0,2012-11-27 07:15:00
12:55 AM,28.4,28.4,100,30.25,10.0,SE,3.5,-,N/A,,Clear,140,2012-11-27 07:55:00
1:15 AM,26.6,26.6,100,30.25,10.0,Calm,Calm,-,N/A,,Clear,0,2012-11-27 08:15:00
1:35 AM,28.4,28.4,100,30.25,10.0,SE,3.5,-,N/A,,Clear,130,2012-11-27 08:35:00
1:55 AM,28.4,28.4,100,30.25,10.0,Calm,Calm,-,N/A,,Clear,0,2012-11-27 08:55:00
2:15 AM,26.6,26.6,100,30.25,10.0,Calm,Calm,-,N/A,,Clear,0,2012-11-27 09:15:00
2:35 AM,28.4,28.4,100,30.25,10.0,SE,3.5,-,N/A,,Clear,140,2012-11-27 09:35:00
3:15 AM,26.6,26.6,100,30.25,10.0,SSE,4.6,-,N/A,,Clear,150,2012-11-27 10:15:00
3:35 AM,26.6,26.6,100,30.25,10.0,SSE,3.5,-,N/A,,Clear,160,2012-11-27 10:35:00
3:55 AM,26.6,26.6,100,30.25,10.0,SSE,3.5,-,N/A,,Clear,150,2012-11-27 10:55:00
4:15 AM,26.6,26.6,100,30.25,10.0,SE,3.5,-,N/A,,Clear,140,2012-11-27 11:15:00
4:35 AM,24.8,24.8,100,30.25,10.0,Calm,Calm,-,N/A,,Clear,0,2012-11-27 11:35:00
4:55 AM,24.8,24.8,100,30.25,10.0,ESE,3.5,-,N/A,,Clear,110,2012-11-27 11:55:00
5:15 AM,24.8,24.8,100,30.25,10.0,Calm,Calm,-,N/A,,Clear,0,2012-11-27 12:15:00
5:35 AM,24.8,24.8,100,30.26,10.0,Calm,Calm,-,N/A,,Clear,0,2012-11-27 12:35:00
5:55 AM,23.0,23.0,100,30.26,10.0,SSE,3.5,-,N/A,,Clear,150,2012-11-27 12:55:00
6:15 AM,24.8,24.8,100,30.26,10.0,Calm,Calm,-,N/A,,Clear,0,2012-11-27 13:15:00
6:55 AM,23.0,23.0,100,30.27,10.0,Calm,Calm,-,N/A,,Clear,0,2012-11-27 13:55:00
7:15 AM,23.0,23.0,100,30.27,10.0,ESE,4.6,-,N/A,,Clear,120,2012-11-27 14:15:00
7:35 AM,23.0,23.0,100,30.27,10.0,SE,3.5,-,N/A,,Clear,130,2012-11-27 14:35:00
7:55 AM,23.0,23.0,100,30.28,10.0,Calm,Calm,-,N/A,,Clear,0,2012-11-27 14:55:00
8:15 AM,23.0,23.0,100,30.28,10.0,SE,3.5,-,N/A,,Clear,130,2012-11-27 15:15:00
8:35 AM,23.0,23.0,100,30.28,10.0,SE,3.5,-,N/A,,Clear,140,2012-11-27 15:35:00
8:55 AM,24.8,24.8,100,30.29,10.0,Calm,Calm,-,N/A,,Clear,0,2012-11-27 15:55:00
9:15 AM,26.6,26.6,100,30.29,10.0,ESE,3.5,-,N/A,,Clear,120,2012-11-27 16:15:00
9:35 AM,30.2,28.4,93,30.30,10.0,Calm,Calm,-,N/A,,Clear,0,2012-11-27 16:35:00
9:55 AM,32.0,28.4,87,30.29,10.0,Calm,Calm,-,N/A,,Clear,0,2012-11-27 16:55:00
10:15 AM,32.0,28.4,87,30.29,10.0,SSE,3.5,-,N/A,,Clear,150,2012-11-27 17:15:00
10:35 AM,32.0,28.4,87,30.30,10.0,Calm,Calm,-,N/A,,Clear,0,2012-11-27 17:35:00
10:55 AM,33.8,28.4,81,30.29,10.0,Calm,Calm,-,N/A,,Clear,0,2012-11-27 17:55:00
11:15 AM,35.6,30.2,81,30.29,10.0,Calm,Calm,-,N/A,,Clear,0,2012-11-27 18:15:00
11:55 AM,39.2,32.0,75,30.27,10.0,South,4.6,-,N/A,,Clear,180,2012-11-27 18:55:00
12:15 PM,39.2,32.0,75,30.26,10.0,South,3.5,-,N/A,,Clear,170,2012-11-27 19:15:00
12:35 PM,41.0,32.0,70,30.25,10.0,SE,3.5,-,N/A,,Clear,140,2012-11-27 19:35:00
12:55 PM,41.0,30.2,65,30.24,10.0,SE,3.5,-,N/A,,Clear,140,2012-11-27 19:55:00
1:15 PM,42.8,30.2,61,30.23,10.0,SW,3.5,-,N/A,,Clear,220,2012-11-27 20:15:00
1:35 PM,44.6,28.4,53,30.23,10.0,SSE,3.5,-,N/A,,Clear,160,2012-11-27 20:35:00
2:15 PM,41.0,32.0,70,30.22,10.0,North,5.8,-,N/A,,Clear,350,2012-11-27 21:15:00
2:35 PM,41.0,32.0,70,30.22,10.0,NNW,5.8,-,N/A,,Clear,330,2012-11-27 21:35:00
2:55 PM,41.0,32.0,70,30.21,10.0,NW,5.8,-,N/A,,Clear,320,2012-11-27 21:55:00
3:15 PM,39.2,32.0,75,30.21,10.0,WNW,5.8,-,N/A,,Clear,300,2012-11-27 22:15:00
3:35 PM,41.0,32.0,70,30.21,10.0,North,4.6,-,N/A,,Clear,350,2012-11-27 22:35:00
3:55 PM,39.2,32.0,75,30.20,10.0,NNW,5.8,-,N/A,,Clear,330,2012-11-27 22:55:00
4:15 PM,39.2,32.0,75,30.20,10.0,North,3.5,-,N/A,,Clear,350,2012-11-27 23:15:00
4:55 PM,39.2,32.0,75,30.20,10.0,NNW,3.5,-,N/A,,Clear,340,2012-11-27 23:55:00
5:15 PM,37.4,32.0,81,30.19,10.0,Calm,Calm,-,N/A,,Clear,0,2012-11-28 00:15:00
5:35 PM,37.4,33.8,87,30.19,10.0,NW,3.5,-,N/A,,Clear,320,2012-11-28 00:35:00
5:55 PM,35.6,33.8,93,30.18,10.0,NW,3.5,-,N/A,,Clear,320,2012-11-28 00:55:00
6:15 PM,33.8,33.8,100,30.19,10.0,West,3.5,-,N/A,,Clear,280,2012-11-28 01:15:00
6:35 PM,33.8,33.8,100,30.19,10.0,WNW,5.8,-,N/A,,Clear,290,2012-11-28 01:35:00
6:55 PM,33.8,33.8,100,30.19,10.0,WNW,3.5,-,N/A,,Clear,300,2012-11-28 01:55:00
7:15 PM,33.8,33.8,100,30.19,10.0,WNW,4.6,-,N/A,,Clear,290,2012-11-28 02:15:00
7:35 PM,33.8,33.8,100,30.19,10.0,West,5.8,-,N/A,,Clear,280,2012-11-28 02:35:00
7:55 PM,32.0,32.0,100,30.20,10.0,West,4.6,-,N/A,,Clear,270,2012-11-28 02:55:00
8:15 PM,32.0,32.0,100,30.19,10.0,Calm,Calm,-,N/A,,Clear,0,2012-11-28 03:15:00
8:35 PM,32.0,32.0,100,30.20,10.0,Calm,Calm,-,N/A,,Clear,0,2012-11-28 03:35:00
8:55 PM,32.0,32.0,100,30.20,8.0,Calm,Calm,-,N/A,,Clear,0,2012-11-28 03:55:00
9:15 PM,32.0,32.0,100,30.19,6.0,Calm,Calm,-,N/A,,Clear,0,2012-11-28 04:15:00
9:55 PM,28.4,28.4,100,30.19,4.0,Calm,Calm,-,N/A,,Clear,0,2012-11-28 04:55:00
10:15 PM,28.4,28.4,100,30.19,4.0,East,3.5,-,N/A,,Clear,100,2012-11-28 05:15:00
10:35 PM,28.4,28.4,100,30.19,4.0,ESE,3.5,-,N/A,,Clear,120,2012-11-28 05:35:00
10:55 PM,28.4,28.4,100,30.19,4.0,Calm,Calm,-,N/A,,Clear,0,2012-11-28 05:55:00
11:15 PM,28.4,28.4,100,30.19,5.0,Calm,Calm,-,N/A,,Clear,0,2012-11-28 06:15:00
11:55 PM,28.4,28.4,100,30.19,4.0,Calm,Calm,-,N/A,,Clear,0,2012-11-28 06:55:00